Time;durP1;ratioP1;P1;durP2;ratioP2;P2;SDS_P1;SDS_P2;PMS_P1;PMS_P2;Temp;Humidity;BMP_temperature;BMP_pressure;BME280_temperature;BME280_humidity;BME280_pressure;Samples;Min_cycle;Max_cycle;Signal;HPM_P1;HPM_P2
2022/11/30 00:00:04;;;;;;;76.32;54.35;;;15.60;66.20;;;;;;4990955;28;88059;-55
2022/11/30 00:02:29;;;;;;;77.72;54.70;;;15.60;66.40;;;;;;4975824;28;88388;-55
2022/11/30 00:04:55;;;;;;;76.10;53.72;;;15.60;66.50;;;;;;4992416;28;86547;-54
2022/11/30 00:07:21;;;;;;;76.90;54.50;;;15.50;66.50;;;;;;4993608;28;85525;-56
2022/11/30 00:09:46;;;;;;;75.72;54.00;;;15.50;66.60;;;;;;4994596;28;85080;-53
2022/11/30 00:12:12;;;;;;;78.13;54.58;;;15.50;66.60;;;;;;4990453;28;86843;-55
2022/11/30 00:14:37;;;;;;;76.30;54.20;;;15.50;66.50;;;;;;4985659;28;86169;-56
2022/11/30 00:17:03;;;;;;;77.35;54.75;;;15.50;66.60;;;;;;4997337;28;86233;-53
2022/11/30 00:19:29;;;;;;;75.43;54.22;;;15.50;66.50;;;;;;4989527;28;85329;-52
2022/11/30 00:21:54;;;;;;;75.18;54.33;;;15.50;66.60;;;;;;4989375;28;85022;-55
2022/11/30 00:24:20;;;;;;;77.82;54.33;;;15.50;66.50;;;;;;4985932;28;85556;-53
2022/11/30 00:26:45;;;;;;;75.45;54.08;;;15.50;66.50;;;;;;4990484;28;85792;-55
2022/11/30 00:29:11;;;;;;;78.07;54.38;;;15.40;66.50;;;;;;4996630;28;85489;-53
2022/11/30 00:31:37;;;;;;;78.97;54.60;;;15.50;66.50;;;;;;4995687;28;85738;-55
2022/11/30 00:34:03;;;;;;;76.72;54.13;;;15.40;66.40;;;;;;4976140;28;86705;-54
2022/11/30 00:36:28;;;;;;;81.03;54.80;;;15.50;66.30;;;;;;4989887;28;84957;-55
2022/11/30 00:38:54;;;;;;;77.72;54.60;;;15.40;66.30;;;;;;4983910;28;85864;-56
2022/11/30 00:41:20;;;;;;;77.28;54.30;;;15.40;67.10;;;;;;4996431;28;86368;-54
2022/11/30 00:43:46;;;;;;;77.53;54.83;;;15.40;66.50;;;;;;4990299;28;86296;-53
2022/11/30 00:46:12;;;;;;;77.47;54.75;;;15.40;66.50;;;;;;4989142;28;87027;-52
2022/11/30 00:48:39;;;;;;;77.80;54.53;;;15.40;66.40;;;;;;4982020;28;88526;-53
2022/11/30 00:51:06;;;;;;;76.45;54.35;;;15.30;66.40;;;;;;4991055;28;86216;-51
2022/11/30 00:53:31;;;;;;;75.88;53.90;;;15.40;66.50;;;;;;4987508;28;88489;-54
2022/11/30 00:55:57;;;;;;;79.20;54.35;;;15.40;66.50;;;;;;4993169;28;85755;-55
2022/11/30 00:58:23;;;;;;;77.40;54.35;;;15.30;66.60;;;;;;4991054;28;85531;-52
2022/11/30 01:00:48;;;;;;;77.88;53.95;;;15.30;66.60;;;;;;4987769;28;87921;-55
2022/11/30 01:03:14;;;;;;;78.15;54.72;;;15.40;66.60;;;;;;4994320;28;85394;-53
2022/11/30 01:05:42;;;;;;;74.53;53.67;;;15.40;66.60;;;;;;4982914;28;86674;-52
2022/11/30 01:08:09;;;;;;;81.20;55.42;;;15.30;66.60;;;;;;4989100;28;86102;-55
2022/11/30 01:10:36;;;;;;;77.15;54.33;;;15.30;66.50;;;;;;4990569;28;85417;-53
2022/11/30 01:13:02;;;;;;;80.13;55.20;;;15.30;66.70;;;;;;4997874;28;85574;-53
2022/11/30 01:15:29;;;;;;;76.70;54.83;;;15.30;66.70;;;;;;4994298;28;85536;-56
2022/11/30 01:17:55;;;;;;;78.53;54.65;;;15.30;66.60;;;;;;4996232;28;85418;-53
2022/11/30 01:20:21;;;;;;;77.20;54.17;;;15.30;66.60;;;;;;4988671;28;85898;-53
2022/11/30 01:22:46;;;;;;;77.85;55.03;;;15.20;66.50;;;;;;4999790;28;85648;-51
2022/11/30 01:25:12;;;;;;;78.53;55.15;;;15.30;66.50;;;;;;4993327;28;85743;-55
2022/11/30 01:27:38;;;;;;;77.13;54.65;;;15.20;66.50;;;;;;4995930;28;85654;-54
2022/11/30 01:30:04;;;;;;;76.80;55.03;;;15.30;66.60;;;;;;4990496;28;85900;-53
2022/11/30 01:32:30;;;;;;;77.43;55.00;;;15.20;67.40;;;;;;4992256;28;86071;-55
2022/11/30 01:34:56;;;;;;;77.00;54.95;;;15.20;66.50;;;;;;4988138;28;85890;-52
2022/11/30 01:37:21;;;;;;;78.50;55.10;;;15.20;66.50;;;;;;4989665;28;85681;-53
2022/11/30 01:39:47;;;;;;;77.05;55.00;;;15.20;66.50;;;;;;4993408;28;85994;-54
2022/11/30 01:42:18;;;;;;;78.07;54.63;;;15.20;66.60;;;;;;4997887;28;86080;-53
2022/11/30 01:44:59;;;;;;;77.43;55.00;;;15.20;66.50;;;;;;4983949;27;85717;-55
2022/11/30 01:47:31;;;;;;;79.27;54.77;;;15.20;66.70;;;;;;4998434;28;85424;-51
2022/11/30 01:50:11;;;;;;;78.40;55.20;;;15.10;66.70;;;;;;4990400;28;85910;-55
2022/11/30 01:52:47;;;;;;;77.35;54.67;;;15.10;66.70;;;;;;4983002;28;86658;-55
2022/11/30 01:55:33;;;;;;;78.05;55.13;;;15.10;66.80;;;;;;4992681;28;85812;-55
2022/11/30 01:58:12;;;;;;;77.70;54.67;;;15.10;66.70;;;;;;4992388;28;86591;-54
2022/11/30 02:00:42;;;;;;;80.45;55.50;;;15.10;66.80;;;;;;4999428;28;86191;-56
2022/11/30 02:03:22;;;;;;;81.00;55.75;;;15.10;66.80;;;;;;4984426;28;87137;-55
2022/11/30 02:05:48;;;;;;;79.10;54.72;;;15.10;66.80;;;;;;4993591;28;86049;-54
2022/11/30 02:08:13;;;;;;;77.53;55.15;;;15.10;66.70;;;;;;4991440;28;84969;-54
2022/11/30 02:10:42;;;;;;;77.25;55.00;;;15.10;66.80;;;;;;4995874;28;87973;-52
2022/11/30 02:13:27;;;;;;;76.78;54.40;;;15.10;66.70;;;;;;4996784;28;85709;-55
2022/11/30 02:15:52;;;;;;;80.50;55.72;;;15.10;66.70;;;;;;4990836;28;85519;-56
2022/11/30 02:18:30;;;;;;;78.70;55.50;;;15.10;66.70;;;;;;4995167;28;85411;-55
2022/11/30 02:21:37;;;;;;;78.32;55.20;;;15.00;66.80;;;;;;4984091;28;85122;-54
2022/11/30 02:24:20;;;;;;;79.78;55.20;;;15.00;66.90;;;;;;4995976;28;86588;-52
2022/11/30 02:27:21;;;;;;;78.05;54.90;;;15.00;66.90;;;;;;4984700;28;85623;-53
2022/11/30 02:29:54;;;;;;;79.25;54.92;;;15.10;66.80;;;;;;4996276;28;85398;-53
2022/11/30 02:32:26;;;;;;;79.47;55.70;;;15.00;66.80;;;;;;4997529;28;85268;-55
2022/11/30 02:34:55;;;;;;;78.05;55.25;;;15.00;66.80;;;;;;4995450;28;86447;-54
2022/11/30 02:37:23;;;;;;;79.32;55.58;;;15.00;66.80;;;;;;4986783;28;85891;-54
2022/11/30 02:39:49;;;;;;;79.65;55.05;;;15.00;66.90;;;;;;4995458;28;86292;-53
2022/11/30 02:42:15;;;;;;;77.43;54.78;;;15.00;67.00;;;;;;4989283;28;85432;-55
2022/11/30 02:44:43;;;;;;;78.20;55.22;;;15.00;67.00;;;;;;4991164;28;84959;-54
2022/11/30 02:47:29;;;;;;;81.90;56.30;;;15.00;67.00;;;;;;4985709;28;85374;-55
2022/11/30 02:50:09;;;;;;;77.65;55.00;;;15.00;67.00;;;;;;4996959;28;86781;-53
2022/11/30 02:52:35;;;;;;;78.07;55.35;;;15.00;67.00;;;;;;4982717;28;85405;-51
2022/11/30 02:55:06;;;;;;;78.05;55.33;;;15.00;67.00;;;;;;4992614;28;85678;-52
2022/11/30 02:57:33;;;;;;;78.35;54.67;;;15.00;67.10;;;;;;5002029;28;85709;-54
2022/11/30 03:00:01;;;;;;;79.25;55.85;;;15.00;67.10;;;;;;4997767;28;86289;-56
2022/11/30 03:02:27;;;;;;;81.47;56.60;;;15.00;67.30;;;;;;4996888;28;85607;-54
2022/11/30 03:04:52;;;;;;;78.70;55.35;;;15.00;67.10;;;;;;4996437;28;86370;-55
2022/11/30 03:07:18;;;;;;;81.05;55.92;;;14.90;67.00;;;;;;4983125;28;85607;-54
2022/11/30 03:09:43;;;;;;;79.53;55.28;;;14.90;67.20;;;;;;4991331;28;85790;-56
2022/11/30 03:12:09;;;;;;;78.57;55.20;;;15.00;67.10;;;;;;4996774;28;86274;-56
2022/11/30 03:14:35;;;;;;;78.20;54.97;;;14.90;67.00;;;;;;4990049;28;85890;-54
2022/11/30 03:17:00;;;;;;;80.82;56.08;;;14.90;67.10;;;;;;4993289;28;87306;-55
2022/11/30 03:19:26;;;;;;;78.93;55.25;;;14.90;67.10;;;;;;4987035;28;85326;-53
2022/11/30 03:21:51;;;;;;;78.03;54.85;;;14.90;67.10;;;;;;4996005;28;85275;-54
2022/11/30 03:24:17;;;;;;;82.30;56.65;;;14.80;67.10;;;;;;4981374;28;85683;-55
2022/11/30 03:26:43;;;;;;;80.32;55.85;;;14.80;67.10;;;;;;4990473;28;85570;-54
2022/11/30 03:29:08;;;;;;;79.13;55.78;;;14.90;67.20;;;;;;5002315;28;85130;-55
2022/11/30 03:31:34;;;;;;;80.35;55.65;;;14.90;67.20;;;;;;4996198;28;84976;-58
2022/11/30 03:34:00;;;;;;;78.60;55.63;;;14.80;67.10;;;;;;4982666;28;86867;-56
2022/11/30 03:36:25;;;;;;;82.55;56.70;;;14.80;67.20;;;;;;4982478;28;84946;-54
2022/11/30 03:38:51;;;;;;;82.22;56.15;;;14.80;67.10;;;;;;4989019;28;87271;-56
2022/11/30 03:41:17;;;;;;;78.57;55.80;;;14.80;67.20;;;;;;4986776;28;86862;-53
2022/11/30 03:43:44;;;;;;;79.35;55.85;;;14.80;67.30;;;;;;4990929;27;86514;-54
2022/11/30 03:46:10;;;;;;;81.45;56.72;;;14.80;67.40;;;;;;4994036;28;85846;-53
2022/11/30 03:48:36;;;;;;;82.05;56.60;;;14.80;67.40;;;;;;4978916;28;88775;-56
2022/11/30 03:51:03;;;;;;;80.65;56.20;;;14.80;67.40;;;;;;4995790;28;85586;-55
2022/11/30 03:53:28;;;;;;;79.20;55.92;;;14.80;67.40;;;;;;4989081;28;85211;-56
2022/11/30 03:55:57;;;;;;;81.00;55.70;;;14.80;67.50;;;;;;5004198;27;86386;-55
2022/11/30 03:58:23;;;;;;;80.00;55.72;;;14.80;67.50;;;;;;4981913;28;85736;-55
2022/11/30 04:00:58;;;;;;;78.50;56.22;;;14.70;67.30;;;;;;4988951;28;86544;-53
2022/11/30 04:03:23;;;;;;;79.32;55.67;;;14.80;67.50;;;;;;4992041;28;85158;-54
2022/11/30 04:05:49;;;;;;;81.95;56.83;;;14.80;67.50;;;;;;4996230;28;92166;-55
2022/11/30 04:08:15;;;;;;;81.38;56.45;;;14.80;67.30;;;;;;4985235;28;85948;-56
2022/11/30 04:10:40;;;;;;;78.18;55.55;;;14.80;67.40;;;;;;4990797;28;85334;-53
2022/11/30 04:13:06;;;;;;;80.75;56.85;;;14.80;67.50;;;;;;4991990;28;91799;-52
2022/11/30 04:15:31;;;;;;;80.10;55.95;;;14.70;67.50;;;;;;4990536;28;85110;-54
2022/11/30 04:17:57;;;;;;;81.10;56.20;;;14.70;67.50;;;;;;4984572;28;85779;-54
2022/11/30 04:20:23;;;;;;;81.30;55.80;;;14.80;67.50;;;;;;4985337;28;85925;-55
2022/11/30 04:22:48;;;;;;;82.97;56.53;;;14.70;67.40;;;;;;4984804;28;88349;-56
2022/11/30 04:25:14;;;;;;;79.75;55.97;;;14.70;67.40;;;;;;4988627;28;86685;-55
2022/11/30 04:27:40;;;;;;;81.57;56.47;;;14.70;67.50;;;;;;4982713;28;86474;-54
2022/11/30 04:30:06;;;;;;;79.13;55.70;;;14.70;67.40;;;;;;4986428;28;89004;-55
2022/11/30 04:32:32;;;;;;;81.32;56.42;;;14.70;67.50;;;;;;4984549;28;87576;-53
2022/11/30 04:34:58;;;;;;;81.00;56.00;;;14.70;67.40;;;;;;4981497;28;86388;-56
2022/11/30 04:37:23;;;;;;;80.63;56.45;;;14.70;67.60;;;;;;4987450;28;85524;-56
2022/11/30 04:39:49;;;;;;;80.03;55.85;;;14.70;67.60;;;;;;4989994;28;85497;-55
2022/11/30 04:42:15;;;;;;;82.22;56.10;;;14.70;67.50;;;;;;4990511;28;85544;-56
2022/11/30 04:44:40;;;;;;;81.95;55.50;;;14.70;67.60;;;;;;4983273;28;86527;-55
2022/11/30 04:47:06;;;;;;;81.85;56.47;;;14.70;67.50;;;;;;4987088;28;87290;-53
2022/11/30 04:49:31;;;;;;;78.90;56.25;;;14.70;67.50;;;;;;4991389;28;87476;-55
2022/11/30 04:51:57;;;;;;;78.80;55.17;;;14.70;68.30;;;;;;4995461;28;89102;-53
2022/11/30 04:54:23;;;;;;;82.85;56.72;;;14.70;67.50;;;;;;4990102;28;86144;-55
2022/11/30 04:56:48;;;;;;;82.15;56.90;;;14.70;67.60;;;;;;4994549;28;86089;-53
2022/11/30 04:59:14;;;;;;;83.13;55.85;;;14.70;67.50;;;;;;4995253;28;85391;-55
2022/11/30 05:01:39;;;;;;;81.57;56.92;;;14.70;67.50;;;;;;4996732;28;86699;-56
2022/11/30 05:04:05;;;;;;;81.18;56.10;;;14.70;67.50;;;;;;4983933;28;85619;-55
2022/11/30 05:06:31;;;;;;;81.05;56.33;;;14.70;67.50;;;;;;4991619;28;85815;-55
2022/11/30 05:08:56;;;;;;;82.20;56.78;;;14.70;67.70;;;;;;4994867;28;86523;-55
2022/11/30 05:11:22;;;;;;;81.97;56.70;;;14.60;67.60;;;;;;4990183;28;85954;-57
2022/11/30 05:13:48;;;;;;;81.05;56.50;;;14.60;67.70;;;;;;4995311;28;85698;-55
2022/11/30 05:16:13;;;;;;;81.20;56.03;;;14.60;67.60;;;;;;4993688;28;86974;-54
2022/11/30 05:18:39;;;;;;;81.47;56.63;;;14.70;67.60;;;;;;4999590;28;84841;-55
2022/11/30 05:21:05;;;;;;;81.20;56.42;;;14.60;67.60;;;;;;4984988;28;85827;-54
2022/11/30 05:23:31;;;;;;;81.82;56.90;;;14.60;67.70;;;;;;4992987;28;85172;-54
2022/11/30 05:25:56;;;;;;;85.05;57.30;;;14.60;67.60;;;;;;4990788;28;85267;-54
2022/11/30 05:28:22;;;;;;;81.47;56.38;;;14.60;67.70;;;;;;4996108;28;86369;-54
2022/11/30 05:30:48;;;;;;;85.22;56.60;;;14.60;67.70;;;;;;4998629;28;85262;-57
2022/11/30 05:33:13;;;;;;;81.85;56.35;;;14.60;67.80;;;;;;4993668;28;84963;-55
2022/11/30 05:35:39;;;;;;;82.13;57.08;;;14.50;67.80;;;;;;4989881;28;86711;-55
2022/11/30 05:38:05;;;;;;;82.57;56.92;;;14.60;67.80;;;;;;4984678;28;86020;-56
2022/11/30 05:40:32;;;;;;;81.78;56.75;;;14.50;67.80;;;;;;5000342;28;85530;-55
2022/11/30 05:43:01;;;;;;;85.95;56.95;;;14.60;67.80;;;;;;4998000;27;86082;-55
2022/11/30 05:45:28;;;;;;;86.07;56.35;;;14.60;67.80;;;;;;4988519;28;85666;-55
2022/11/30 05:47:53;;;;;;;84.40;57.17;;;14.60;67.90;;;;;;4998300;28;85542;-56
2022/11/30 05:50:19;;;;;;;84.28;56.92;;;14.60;67.80;;;;;;4990632;28;87792;-56
2022/11/30 05:52:45;;;;;;;85.65;57.53;;;14.60;67.80;;;;;;4986656;28;86012;-54
2022/11/30 05:55:11;;;;;;;83.15;56.78;;;14.50;67.90;;;;;;4987177;28;85451;-55
2022/11/30 05:57:38;;;;;;;83.20;56.85;;;14.50;68.00;;;;;;4991156;28;86141;-56
2022/11/30 06:00:08;;;;;;;84.55;57.08;;;14.50;68.00;;;;;;4996694;28;86234;-54
2022/11/30 06:02:34;;;;;;;84.05;56.33;;;14.60;67.90;;;;;;4994589;28;85519;-55
2022/11/30 06:05:00;;;;;;;84.50;56.83;;;14.60;67.90;;;;;;4986605;28;85615;-55
2022/11/30 06:07:25;;;;;;;86.18;57.88;;;14.60;67.90;;;;;;4981499;28;85809;-55
2022/11/30 06:09:51;;;;;;;85.95;57.28;;;14.60;68.10;;;;;;4994251;28;87017;-55
2022/11/30 06:12:17;;;;;;;85.70;57.42;;;14.60;68.10;;;;;;4997281;27;85797;-56
2022/11/30 06:14:42;;;;;;;89.90;57.08;;;14.60;68.20;;;;;;4992685;28;85696;-55
2022/11/30 06:17:08;;;;;;;83.70;56.88;;;14.60;68.20;;;;;;4996323;28;86753;-56
2022/11/30 06:19:34;;;;;;;83.82;57.65;;;14.60;68.30;;;;;;4988888;28;86170;-56
2022/11/30 06:21:59;;;;;;;84.47;57.75;;;14.60;68.60;;;;;;4982956;28;87067;-55
2022/11/30 06:24:25;;;;;;;87.60;56.33;;;14.60;68.40;;;;;;4991158;28;85054;-55
2022/11/30 06:26:50;;;;;;;82.28;57.13;;;14.60;68.60;;;;;;4984110;28;85168;-54
2022/11/30 06:29:16;;;;;;;90.88;57.40;;;14.60;68.60;;;;;;4983058;28;86042;-56
2022/11/30 06:31:42;;;;;;;84.18;57.35;;;14.50;68.70;;;;;;4976554;28;88006;-54
2022/11/30 06:34:07;;;;;;;86.90;57.63;;;14.50;69.10;;;;;;4971680;28;93096;-55
2022/11/30 06:36:33;;;;;;;86.35;57.30;;;14.50;70.20;;;;;;4981308;28;86280;-53
2022/11/30 06:38:59;;;;;;;91.32;56.83;;;14.50;69.90;;;;;;4979622;28;85731;-54
2022/11/30 06:41:25;;;;;;;89.35;57.47;;;14.50;69.80;;;;;;4987581;28;85620;-55
2022/11/30 06:43:50;;;;;;;85.30;56.45;;;14.50;69.50;;;;;;4997137;28;85345;-52
2022/11/30 06:46:16;;;;;;;84.03;56.33;;;14.40;69.50;;;;;;4958054;28;86332;-54
2022/11/30 06:48:42;;;;;;;85.20;57.42;;;14.40;69.70;;;;;;4979635;28;88865;-55
2022/11/30 06:51:09;;;;;;;95.18;58.97;;;14.40;69.50;;;;;;4988279;28;85801;-54
2022/11/30 06:53:35;;;;;;;94.57;58.60;;;14.40;69.50;;;;;;4990873;28;87807;-54
2022/11/30 06:56:05;;;;;;;95.00;58.35;;;14.40;69.80;;;;;;5000650;28;85889;-54
2022/11/30 06:58:32;;;;;;;91.45;58.20;;;14.40;69.70;;;;;;4988160;28;87119;-54
2022/11/30 07:00:58;;;;;;;92.00;58.35;;;14.30;69.70;;;;;;4983611;28;86697;-53
2022/11/30 07:03:24;;;;;;;89.43;57.90;;;14.30;69.80;;;;;;4977943;28;86350;-55
2022/11/30 07:05:49;;;;;;;102.18;59.47;;;14.30;69.90;;;;;;4984750;28;87423;-56
2022/11/30 07:08:16;;;;;;;103.32;59.63;;;14.40;70.30;;;;;;4982867;28;85169;-55
2022/11/30 07:10:43;;;;;;;96.93;58.90;;;14.40;69.90;;;;;;4988315;28;85555;-55
2022/11/30 07:13:14;;;;;;;95.70;59.00;;;14.40;69.90;;;;;;4987654;28;86475;-53
2022/11/30 07:15:41;;;;;;;90.67;57.70;;;14.40;69.90;;;;;;4979416;28;86710;-54
2022/11/30 07:18:08;;;;;;;92.75;58.25;;;14.30;69.90;;;;;;4981701;28;85548;-56
2022/11/30 07:20:34;;;;;;;94.50;58.92;;;14.20;69.90;;;;;;4990224;28;85315;-50
2022/11/30 07:28:28;;;;;;;92.13;57.47;;;14.10;70.10;;;;;;4987941;28;85625;-54
2022/11/30 07:30:54;;;;;;;99.82;59.28;;;14.10;69.80;;;;;;4993069;28;86606;-57
2022/11/30 07:33:20;;;;;;;97.13;59.53;;;14.40;70.30;;;;;;4990100;28;86225;-60
2022/11/30 07:35:45;;;;;;;95.28;58.90;;;14.60;70.00;;;;;;4987886;28;85793;-55
2022/11/30 07:38:11;;;;;;;89.00;59.15;;;14.60;69.30;;;;;;4988559;28;86614;-52
2022/11/30 07:40:37;;;;;;;94.28;58.08;;;14.70;68.80;;;;;;4989435;28;86008;-55
2022/11/30 07:43:03;;;;;;;91.70;58.17;;;14.80;68.50;;;;;;4989310;28;85304;-52
2022/11/30 07:45:29;;;;;;;90.00;58.00;;;14.80;68.20;;;;;;5001776;28;84992;-59
2022/11/30 07:47:54;;;;;;;91.53;57.60;;;14.90;68.20;;;;;;4992571;28;85081;-59
2022/11/30 07:50:20;;;;;;;91.40;58.08;;;14.90;68.00;;;;;;4993403;28;85882;-58
2022/11/30 07:52:46;;;;;;;88.63;58.40;;;14.90;67.90;;;;;;4990492;28;85066;-57
2022/11/30 07:55:11;;;;;;;93.15;58.63;;;14.90;67.80;;;;;;4994829;28;90055;-58
2022/11/30 07:57:37;;;;;;;94.30;58.53;;;15.00;67.90;;;;;;4998491;28;86259;-57
2022/11/30 08:00:03;;;;;;;92.80;58.42;;;15.00;67.70;;;;;;4985720;28;85603;-55
2022/11/30 08:02:28;;;;;;;96.15;58.53;;;15.00;67.50;;;;;;4990621;28;85554;-56
2022/11/30 08:04:57;;;;;;;90.93;58.72;;;15.00;67.20;;;;;;4982164;28;85792;-53
2022/11/30 08:07:23;;;;;;;93.63;59.33;;;15.00;67.30;;;;;;4985023;28;86486;-49
2022/11/30 08:09:49;;;;;;;87.72;58.72;;;15.00;67.30;;;;;;4999029;28;86330;-57
2022/11/30 08:12:14;;;;;;;90.75;59.25;;;15.00;67.30;;;;;;4992789;28;86370;-59
2022/11/30 08:14:40;;;;;;;96.22;59.38;;;15.00;67.30;;;;;;4992406;28;85166;-58
2022/11/30 08:17:08;;;;;;;89.32;58.20;;;15.00;67.40;;;;;;4986693;28;86262;-54
2022/11/30 08:19:33;;;;;;;89.38;57.75;;;15.10;67.40;;;;;;4994842;28;87390;-59
2022/11/30 08:21:59;;;;;;;91.70;58.30;;;15.10;67.70;;;;;;4987312;28;86640;-59
2022/11/30 08:24:25;;;;;;;89.63;58.28;;;15.10;67.10;;;;;;4997636;28;86235;-58
2022/11/30 08:26:51;;;;;;;88.10;58.75;;;15.10;67.10;;;;;;4985592;28;86061;-58
2022/11/30 08:29:18;;;;;;;92.95;58.90;;;15.10;67.20;;;;;;4995794;28;85161;-61
2022/11/30 08:31:43;;;;;;;90.18;58.97;;;15.10;67.10;;;;;;4980207;28;86038;-60
2022/11/30 08:34:11;;;;;;;88.55;58.55;;;15.20;67.50;;;;;;4988041;28;86548;-58
2022/11/30 08:36:38;;;;;;;87.22;58.25;;;15.20;66.90;;;;;;4991340;28;86037;-55
2022/11/30 08:39:06;;;;;;;87.07;57.83;;;15.20;66.90;;;;;;4993406;28;85912;-54
2022/11/30 08:41:33;;;;;;;93.28;58.40;;;15.20;67.00;;;;;;4968512;28;85580;-53
2022/11/30 08:43:59;;;;;;;86.72;58.20;;;15.20;66.90;;;;;;4984370;28;85643;-56
2022/11/30 08:46:25;;;;;;;85.80;57.50;;;15.20;66.70;;;;;;4990520;28;86522;-58
2022/11/30 08:48:52;;;;;;;85.50;57.20;;;15.20;66.70;;;;;;5000064;28;85601;-56
2022/11/30 08:51:18;;;;;;;88.65;57.72;;;15.30;66.60;;;;;;4983038;28;85699;-55
2022/11/30 08:53:45;;;;;;;85.68;57.10;;;15.30;67.00;;;;;;4996403;28;85145;-60
2022/11/30 08:56:17;;;;;;;89.28;57.72;;;15.30;66.50;;;;;;4996199;28;86062;-60
2022/11/30 08:58:43;;;;;;;92.68;57.83;;;15.30;66.50;;;;;;4984091;28;86186;-55
2022/11/30 09:01:10;;;;;;;86.20;57.30;;;15.30;66.60;;;;;;4983425;28;86676;-58
2022/11/30 09:03:36;;;;;;;85.28;57.28;;;15.30;66.60;;;;;;4990675;28;85008;-53
2022/11/30 09:06:07;;;;;;;84.30;57.45;;;15.30;66.50;;;;;;4993824;28;85751;-52
2022/11/30 09:08:33;;;;;;;83.80;57.15;;;15.40;66.50;;;;;;4984577;28;86870;-56
2022/11/30 09:11:07;;;;;;;85.32;56.85;;;15.40;66.40;;;;;;4981312;28;87387;-56
2022/11/30 09:13:33;;;;;;;83.35;56.95;;;15.30;66.40;;;;;;4985147;28;85164;-56
2022/11/30 09:15:59;;;;;;;88.90;57.67;;;15.30;66.40;;;;;;4988995;28;85359;-54
2022/11/30 09:18:24;;;;;;;89.82;58.33;;;15.30;66.40;;;;;;4981318;28;85363;-51
2022/11/30 09:20:50;;;;;;;87.82;57.05;;;15.30;66.40;;;;;;4993795;28;85714;-60
2022/11/30 09:23:15;;;;;;;83.43;57.17;;;15.30;66.60;;;;;;4972323;28;90971;-55
2022/11/30 09:25:41;;;;;;;86.40;56.83;;;15.40;66.50;;;;;;4982372;27;90025;-57
2022/11/30 09:28:07;;;;;;;84.82;56.60;;;15.40;66.40;;;;;;4981617;28;85620;-54
2022/11/30 09:30:32;;;;;;;82.35;57.00;;;15.40;66.40;;;;;;4980012;28;87892;-50
2022/11/30 09:33:01;;;;;;;82.53;56.33;;;15.40;66.10;;;;;;4988616;28;85504;-52
2022/11/30 09:35:26;;;;;;;85.07;56.17;;;15.40;66.20;;;;;;4995360;28;85718;-52
2022/11/30 09:37:52;;;;;;;84.32;56.17;;;15.30;65.90;;;;;;4995784;28;86197;-52
2022/11/30 09:40:22;;;;;;;89.68;57.15;;;15.30;65.90;;;;;;4991501;28;86504;-53
2022/11/30 09:43:05;;;;;;;87.75;56.28;;;15.30;66.00;;;;;;4982654;28;86565;-57
2022/11/30 09:45:33;;;;;;;83.80;56.22;;;15.40;66.70;;;;;;4989469;28;86037;-54
2022/11/30 09:48:32;;;;;;;84.25;56.20;;;15.70;65.60;;;;;;4986213;28;86837;-52
2022/11/30 09:51:23;;;;;;;82.65;56.45;;;15.80;65.40;;;;;;4982088;28;87234;-49
2022/11/30 09:54:20;;;;;;;85.97;56.58;;;15.90;65.40;;;;;;4985413;28;84814;-49
2022/11/30 09:56:46;;;;;;;87.22;56.63;;;15.90;65.40;;;;;;4993233;28;84843;-47
2022/11/30 09:59:28;;;;;;;81.35;56.78;;;15.90;65.30;;;;;;4987692;28;89801;-53
2022/11/30 10:01:55;;;;;;;83.88;55.75;;;15.90;65.30;;;;;;4988012;28;85998;-50
2022/11/30 10:04:26;;;;;;;84.47;57.03;;;16.00;65.20;;;;;;4985359;28;84776;-51
2022/11/30 10:07:04;;;;;;;83.88;56.05;;;16.00;65.20;;;;;;4999023;28;85509;-51
2022/11/30 10:09:48;;;;;;;82.90;57.25;;;16.00;64.80;;;;;;4977841;28;87411;-52
2022/11/30 10:12:22;;;;;;;82.80;55.70;;;16.10;65.00;;;;;;4991625;28;90280;-54
2022/11/30 10:15:06;;;;;;;80.70;56.42;;;16.10;65.00;;;;;;4990527;28;86344;-52
2022/11/30 10:17:54;;;;;;;82.80;55.63;;;16.10;65.00;;;;;;4996824;28;84908;-54
2022/11/30 10:20:48;;;;;;;82.03;55.38;;;16.10;65.00;;;;;;4995387;28;85232;-52
2022/11/30 10:23:38;;;;;;;79.57;55.45;;;16.10;64.70;;;;;;4991005;28;86893;-55
2022/11/30 10:26:10;;;;;;;80.72;56.00;;;16.10;65.50;;;;;;4991553;28;86542;-51
2022/11/30 10:28:56;;;;;;;81.40;55.65;;;16.20;64.70;;;;;;4993683;28;85098;-51
2022/11/30 10:31:33;;;;;;;81.82;56.03;;;16.20;64.70;;;;;;4984325;28;87781;-55
2022/11/30 10:34:18;;;;;;;80.25;55.17;;;16.20;64.60;;;;;;4987994;28;84953;-56
2022/11/30 10:36:52;;;;;;;83.88;56.08;;;16.20;64.50;;;;;;4990389;28;85185;-55
2022/11/30 10:39:39;;;;;;;84.63;56.38;;;16.20;64.40;;;;;;4984250;28;86123;-53
2022/11/30 10:42:08;;;;;;;81.07;55.40;;;16.30;64.40;;;;;;4985353;28;85781;-55
2022/11/30 10:44:38;;;;;;;81.22;55.58;;;16.30;64.50;;;;;;4992648;28;87782;-56
2022/11/30 10:47:21;;;;;;;81.72;55.35;;;16.30;64.30;;;;;;4991246;28;84697;-57
2022/11/30 10:49:51;;;;;;;81.20;55.50;;;16.30;64.40;;;;;;4985679;28;85645;-54
2022/11/30 10:53:02;;;;;;;80.93;55.78;;;16.30;64.20;;;;;;4995181;28;84715;-51
2022/11/30 10:55:30;;;;;;;80.75;54.88;;;16.30;64.20;;;;;;4993028;28;85502;-53
2022/11/30 10:58:18;;;;;;;82.88;55.58;;;16.30;64.10;;;;;;4988615;28;90853;-52
2022/11/30 11:01:05;;;;;;;80.28;55.65;;;16.50;63.70;;;;;;4990844;28;84973;-53
2022/11/30 11:03:31;;;;;;;82.72;55.88;;;16.50;63.40;;;;;;4992933;28;85960;-51
2022/11/30 11:06:23;;;;;;;81.20;55.17;;;16.60;63.10;;;;;;4986024;27;87422;-50
2022/11/30 11:08:49;;;;;;;83.75;56.05;;;16.70;63.00;;;;;;4985561;28;86057;-51
2022/11/30 11:11:37;;;;;;;81.90;55.22;;;16.70;63.00;;;;;;4993436;28;86725;-52
2022/11/30 11:14:17;;;;;;;82.53;55.67;;;16.90;62.50;;;;;;4993455;28;86032;-53
2022/11/30 11:16:53;;;;;;;82.88;56.05;;;17.10;61.60;;;;;;4990641;28;85098;-52
2022/11/30 11:19:25;;;;;;;83.35;55.63;;;17.10;61.30;;;;;;4996463;27;87878;-52
2022/11/30 11:21:52;;;;;;;83.47;55.83;;;17.20;61.50;;;;;;4982319;28;85336;-56
2022/11/30 11:24:18;;;;;;;87.43;56.10;;;17.30;61.70;;;;;;4989034;28;87090;-56
2022/11/30 11:26:52;;;;;;;84.30;56.10;;;17.30;61.80;;;;;;4989922;28;85577;-52
2022/11/30 11:29:30;;;;;;;85.70;56.10;;;17.40;61.90;;;;;;4990466;28;85075;-53
2022/11/30 11:32:23;;;;;;;86.90;55.95;;;17.30;62.00;;;;;;4990381;28;86022;-57
2022/11/30 11:34:49;;;;;;;86.93;56.42;;;17.40;62.10;;;;;;4983949;28;86422;-56
2022/11/30 11:37:36;;;;;;;83.10;56.58;;;17.40;62.20;;;;;;4994468;28;90337;-52
2022/11/30 11:40:21;;;;;;;91.07;56.45;;;17.40;62.30;;;;;;4992418;28;84822;-54
2022/11/30 11:42:48;;;;;;;85.55;56.35;;;17.40;62.30;;;;;;4989527;28;90726;-59
2022/11/30 11:45:22;;;;;;;107.47;96.05;;;17.30;62.30;;;;;;4968671;28;86326;-59
2022/11/30 11:47:56;;;;;;;89.03;56.53;;;17.30;62.20;;;;;;4990352;28;88225;-58
2022/11/30 11:50:29;;;;;;;85.32;55.97;;;17.40;62.20;;;;;;4991606;27;88701;-60
2022/11/30 11:53:14;;;;;;;84.15;56.88;;;17.40;62.10;;;;;;4986701;28;85686;-58
2022/11/30 11:55:41;;;;;;;83.50;56.58;;;17.40;62.10;;;;;;4989899;28;85953;-60
2022/11/30 11:58:17;;;;;;;86.18;57.08;;;17.40;62.10;;;;;;4992226;28;85688;-54
2022/11/30 12:00:43;;;;;;;82.70;55.97;;;17.30;62.10;;;;;;4996602;28;86336;-55
2022/11/30 12:03:35;;;;;;;84.15;56.63;;;17.30;62.30;;;;;;4982077;28;85720;-59
2022/11/30 12:06:16;;;;;;;84.07;56.40;;;17.30;62.40;;;;;;4989751;28;86183;-59
2022/11/30 12:09:02;;;;;;;85.32;57.13;;;17.30;62.30;;;;;;4985898;28;87330;-60
2022/11/30 12:11:47;;;;;;;85.45;56.55;;;17.30;62.20;;;;;;4983726;28;87612;-57
2022/11/30 12:14:16;;;;;;;81.32;55.80;;;17.40;62.20;;;;;;4989649;28;85467;-60
2022/11/30 12:17:09;;;;;;;83.78;57.03;;;17.40;62.20;;;;;;4989210;28;85453;-58
2022/11/30 12:20:05;;;;;;;81.60;55.67;;;17.40;62.10;;;;;;4986303;28;86463;-57
2022/11/30 12:23:24;;;;;;;81.72;56.53;;;17.40;62.10;;;;;;4974128;28;84715;-56
2022/11/30 12:25:57;;;;;;;82.57;55.60;;;17.40;61.90;;;;;;4996472;27;87112;-56
2022/11/30 12:28:46;;;;;;;82.05;56.08;;;17.40;61.90;;;;;;4986786;28;86080;-59
2022/11/30 12:31:17;;;;;;;83.68;56.60;;;17.40;61.90;;;;;;4993712;28;90869;-60
2022/11/30 12:33:45;;;;;;;83.80;57.20;;;17.50;61.80;;;;;;4975348;28;87992;-61
2022/11/30 12:36:37;;;;;;;84.72;57.15;;;17.50;61.80;;;;;;4986994;28;85288;-60
2022/11/30 12:39:14;;;;;;;85.40;57.17;;;17.50;61.80;;;;;;4980443;28;86118;-56
2022/11/30 12:41:45;;;;;;;82.28;56.83;;;17.50;61.60;;;;;;4987080;28;88861;-60
2022/11/30 12:44:14;;;;;;;84.43;57.00;;;17.50;61.60;;;;;;4981867;28;86478;-58